OIIK  Qazvin  Airport

Qazvin, Iran

Add Bookmark
ICAO OIIK
Type Airport
Status Operational
Latitude
36° 14' 24" N
36.240101
Longitude
50° 2' 49" E
50.047100
Local (DST + 5) UTC (GMT + 4)
Jul 30, 2015 12:30 Jul 29, 2015 20:00
Sunrise-Sunset Local UTC
Begin Civil Twilight 05:45 01:15
Sunrise 06:13 01:43
Sunset 08:18 15:48
End Civil Twilight 08:47 16:17
VFR
VFR
MVFR
MVFR
IFR
IFR
LIFR
LIFR
Unknown
Unavailable

Current Weather

METAR Observed VFR
OIIK 291900Z 27004KT CAVOK 24/10 Q1014 Wed, Jul 29, 2015 @ 19:00 UTC
(1 Hour ago)
Visual Flight Rules
Wind Visibility Conditions
270° at 4 knots (7 kph) 10 km or more
  • No significant weather
Temperatures Readings Precipitation
Current Temp
24°C
75°F
Dewpoint
10°C
50°F
Humidity 41%
Altimeter 29.94" Hg
Sea Level Pressure 1,014 mb
Field Elevation
1,278 m
4,193 ft
None Recorded

Additional weather within a 92.6km radius of OIIK

Map ICAO Location
OIIP 87km SE (126°)
VFR
VFR
MVFR
MVFR
IFR
IFR
LIFR
LIFR
Unknown
Unavailable
-
-

CheckWX.com is intended as a tool to help pilots better visualize weather data. It is not intended as a substitute for an official weather briefing obtained from a Flight Service Station. CheckWX.com does not meet the FAA requirements for an official pre-flight weather briefing. Therefore, it's important that pilots still call and obtain an official FSS pre-flight weather briefing.

© 2007-2015 CheckWX.com
20:00:08 UTC